Parc Castillo, Puerto Rico
Current Conditions -  °F | °C
As of 1:50 PM on Thursday 23 Oct 2014 (Local Time) from TJBQ Reporting Station
Scattered Clouds Scattered Clouds  
Wind Chill: 86°   Ceiling: Unl
Heat Index: 93°   Visibility: 10mi
Dew Point: 73°   Wind: 5mph
Humidity: 66%   Direction: 340°NNW
Pressure: 29.91"   Gusts: NA
Location:  18.203°N, 67.14°W
Report Text: TJBQ 231750Z 34004KT 10SM SCT070 30/23 A2991 RMK RWY 26- ATIS I
Loading
Personal Weather Stations






























Interactive Weather Map
Tropical Storm Tracking
New forecast layout! Learn more

10-Day Weather Forecast

Advertisements
Track Severe Weather on mobile